Etusivu
METAR-TAF:

METAR-TAF

Lentoasemat :

Grise Fiord, Nunavut, Kanada

Leveyspiiri: 76-25N, Pituuspiiri: 082-54W, korkeus merenpinnasta: 45 m

Tämänhetkinen sää

Tämä raportti tehtiin 14 tuntia ja 11 minuuttia sitten, kello 21.00 UTC
Tuuli 2 kn eri suunnista
Lämpötila -32°C
Kosteus 67%
Ilmanpaine 1023 hPa
Näkyvyys: 24.1 km
Muutamia pilviä 4200 ft:n korkeudessa
Hajonneita pilviä 14000 ft:n korkeudessa

METAR: CWGZ 252100Z VRB02KT 15SM FEW042 BKN140 M32/M36 A3022 RMK SC2AS4 S0 AFT 13UTC/LAST STFD OBS/NEXT 261700 UTC SLP245

Aika: 06:11 (11:11 UTC)


TAF: puuttuu

Säähavainnot ja -ennusteet yli 4000 lentoasemalta (METAR- ja TAF-raportit).

Käytössä olevat sääasemat on merkitty karttaan keltaisilla ja punaisilla pisteillä.

Aseta hiiri pisteen päälle nähdäksesi sääaseman nimen.

Klikkaa sitten nähdäksesi säähavainnot ja -ennusteet.

Kartan vaihtaminen: klikkaa mustalla rastilla varustettuja vihreitä pisteitä, niin voit zoomata sisään; viivalla varustettua vihreää pistettä, niin voit zoomata ulos tai vihreitä nuolia, niin pääset viereisille kartoille.


METAR-TAF: